X  Close Metar Aviation Weather Data     KSEA Seattle Tacoma International Airport
Temperature
50°F Temperature
41°F Dewpoint
71% Humidity



Wind
6 MPH
10 KM/H
3 M/S
5 KTS



130°
SE
Current Conditions

Partly Cloudy Partly Cloudy
Pressure 1026.42 (hPa) - 30.31 (inHg)
Visibility 9.9 (mile) - 16 (km)
Airport
Airport-code KSEA

Location: Seattle Tacoma International Airport
Distance: 14 (mi)

Metar:
KSEA 280253Z 13005KT 10SM FEW043 SCT250 10/05 A3031 RMK AO2 SLP271 T01000050 56008

Time: 10-27-2020 19:53 PDT